Strona główna
METAR-TAF:

METAR-TAF

Lotnisko :

Port lotniczy Chongqing-Jiangbei

Chongqing, Chiny

Szerokość geograficzna: 29-31N, Długość geograficzna: 106-29E, wysokość: 351 m

Aktualna obserwacja pogody

Raport powstał 18 minut temu, godzina 11:00 UTC
Cisza
Temperatura 11°C
Wilgotność 82%
Ciśnienie 1024 hPa
Widzialność: 8000 m

METAR: ZUCK 191100Z 00000MPS 8000 NSC 11/08 Q1024 NOSIG

czas: 19:18 (11:18 UTC)

Prognoza

Raport powstał 8 godziny i 17 minut temu, godzina 03:01 UTC
Prognoza ważna od 19 godzina 06 UTC do 20 godzina 06 UTC
Wiatr 6 kt od zachodnio-północny zachód
Widzialność: 5000 m
Mało chmury na wysokości 2600 ft
Rozproszone chmury na wysokości 4000 ft
zamglenie

TAF: ZUCK 190301Z 1906/2006 29003MPS 5000 BR FEW026 SCT040 TX12/1908Z TN10/1922Z

Obserwacja i prognoza pogody dla ponad 4000 lotnisk (raport METAR i TAF).

Dostępne stacje oznaczono żółtymi i czerwonymi punktami na mapie.

Najedź kursorem aby zobaczyć nazwę stacji.

Kliknij aby zobaczyć obserwacje i prognozy pogody.

Aby zmienić mapę: kliknij na zielony przycisk z czarnym krzyżykiem, aby powiększyć; na zielony przycisk z myślnikiem, aby pomniejszyć; na zielone strzałki, aby przejść do map sąsiednich.


METAR-TAF: